sensor_id;sensor_type;location;lat;lon;timestamp;pressure;altitude;pressure_sealevel;temperature;humidity
80654;BME280;70020;45.524;10.240;2024-03-02T00:00:21;99291.13;;;15.75;59.90
80654;BME280;70020;45.524;10.240;2024-03-02T00:02:49;99290.28;;;15.66;59.69
80654;BME280;70020;45.524;10.240;2024-03-02T00:05:16;99287.69;;;15.66;59.58
80654;BME280;70020;45.524;10.240;2024-03-02T00:07:43;99296.31;;;15.75;59.90
80654;BME280;70020;45.524;10.240;2024-03-02T00:10:11;99288.81;;;15.63;60.36
80654;BME280;70020;45.524;10.240;2024-03-02T00:12:38;99290.25;;;15.58;60.11
80654;BME280;70020;45.524;10.240;2024-03-02T00:18:11;99292.03;;;15.57;60.17
80654;BME280;70020;45.524;10.240;2024-03-02T00:20:39;99291.38;;;15.55;60.39
80654;BME280;70020;45.524;10.240;2024-03-02T00:23:08;99289.59;;;15.64;59.92
80654;BME280;70020;45.524;10.240;2024-03-02T00:25:38;99296.59;;;15.55;60.29
80654;BME280;70020;45.524;10.240;2024-03-02T00:28:05;99292.38;;;15.54;60.37
80654;BME280;70020;45.524;10.240;2024-03-02T00:33:20;99295.28;;;15.59;61.14
80654;BME280;70020;45.524;10.240;2024-03-02T00:35:47;99294.34;;;15.60;60.46
80654;BME280;70020;45.524;10.240;2024-03-02T00:38:14;99286.19;;;15.63;59.98
80654;BME280;70020;45.524;10.240;2024-03-02T00:40:45;99295.28;;;15.59;59.76
80654;BME280;70020;45.524;10.240;2024-03-02T00:46:18;99287.63;;;15.58;60.09
80654;BME280;70020;45.524;10.240;2024-03-02T00:48:54;99282.41;;;15.58;59.46
80654;BME280;70020;45.524;10.240;2024-03-02T00:51:22;99295.94;;;15.53;59.76
80654;BME280;70020;45.524;10.240;2024-03-02T00:53:48;99291.03;;;15.50;59.27
80654;BME280;70020;45.524;10.240;2024-03-02T00:56:14;99297.88;;;15.51;58.64
80654;BME280;70020;45.524;10.240;2024-03-02T00:58:40;99300.25;;;15.71;57.88
80654;BME280;70020;45.524;10.240;2024-03-02T01:01:05;99288.97;;;15.70;58.90
80654;BME280;70020;45.524;10.240;2024-03-02T01:03:32;99295.28;;;15.59;59.52
80654;BME280;70020;45.524;10.240;2024-03-02T01:05:58;99292.22;;;15.64;58.58
80654;BME280;70020;45.524;10.240;2024-03-02T01:08:24;99287.34;;;15.61;58.01
80654;BME280;70020;45.524;10.240;2024-03-02T01:10:50;99295.69;;;15.73;58.22
80654;BME280;70020;45.524;10.240;2024-03-02T01:13:16;99297.97;;;15.76;58.78
80654;BME280;70020;45.524;10.240;2024-03-02T01:15:42;99296.16;;;15.76;58.94
80654;BME280;70020;45.524;10.240;2024-03-02T01:18:08;99293.72;;;15.75;59.23
80654;BME280;70020;45.524;10.240;2024-03-02T01:20:34;99293.53;;;15.76;59.49
80654;BME280;70020;45.524;10.240;2024-03-02T01:22:59;99288.81;;;15.72;59.43
80654;BME280;70020;45.524;10.240;2024-03-02T01:25:25;99283.47;;;15.73;59.47
80654;BME280;70020;45.524;10.240;2024-03-02T01:27:50;99286.72;;;15.75;58.25
80654;BME280;70020;45.524;10.240;2024-03-02T01:30:16;99290.28;;;15.74;58.48
80654;BME280;70020;45.524;10.240;2024-03-02T01:32:42;99289.47;;;15.74;59.02
80654;BME280;70020;45.524;10.240;2024-03-02T01:35:08;99289.28;;;15.67;57.59
80654;BME280;70020;45.524;10.240;2024-03-02T01:37:34;99288.50;;;15.75;56.98
80654;BME280;70020;45.524;10.240;2024-03-02T01:40:00;99287.19;;;15.71;57.05
80654;BME280;70020;45.524;10.240;2024-03-02T01:42:25;99295.03;;;15.79;57.04
80654;BME280;70020;45.524;10.240;2024-03-02T01:44:51;99289.84;;;15.87;57.12
80654;BME280;70020;45.524;10.240;2024-03-02T01:47:17;99295.84;;;15.79;58.09
80654;BME280;70020;45.524;10.240;2024-03-02T01:49:43;99296.66;;;15.80;58.29
80654;BME280;70020;45.524;10.240;2024-03-02T01:52:08;99295.03;;;15.79;57.48
80654;BME280;70020;45.524;10.240;2024-03-02T01:54:34;99295.06;;;15.87;57.57
80654;BME280;70020;45.524;10.240;2024-03-02T01:57:00;99288.16;;;15.70;55.73
80654;BME280;70020;45.524;10.240;2024-03-02T01:59:26;99292.28;;;15.80;55.86
80654;BME280;70020;45.524;10.240;2024-03-02T02:01:52;99284.78;;;15.85;56.21
80654;BME280;70020;45.524;10.240;2024-03-02T02:04:19;99292.28;;;15.88;56.11
80654;BME280;70020;45.524;10.240;2024-03-02T02:06:46;99289.97;;;15.77;56.65
80654;BME280;70020;45.524;10.240;2024-03-02T02:09:12;99288.47;;;15.66;57.46
80654;BME280;70020;45.524;10.240;2024-03-02T02:11:38;99293.06;;;15.73;57.72
80654;BME280;70020;45.524;10.240;2024-03-02T02:14:04;99286.03;;;15.65;57.75
80654;BME280;70020;45.524;10.240;2024-03-02T02:16:29;99288.97;;;15.70;57.80
80654;BME280;70020;45.524;10.240;2024-03-02T02:18:55;99289.16;;;15.69;58.04
80654;BME280;70020;45.524;10.240;2024-03-02T02:21:24;99288.00;;;15.71;57.96
80654;BME280;70020;45.524;10.240;2024-03-02T02:23:50;99291.75;;;15.69;58.83
80654;BME280;70020;45.524;10.240;2024-03-02T02:26:16;99289.59;;;15.64;59.71
80654;BME280;70020;45.524;10.240;2024-03-02T02:28:41;99284.06;;;15.67;60.17
80654;BME280;70020;45.524;10.240;2024-03-02T02:31:15;99282.25;;;15.59;60.69
80654;BME280;70020;45.524;10.240;2024-03-02T02:33:41;99283.56;;;15.55;59.30
80654;BME280;70020;45.524;10.240;2024-03-02T02:36:11;99278.00;;;15.50;58.09
80654;BME280;70020;45.524;10.240;2024-03-02T02:38:41;99274.44;;;15.59;57.63
80654;BME280;70020;45.524;10.240;2024-03-02T02:41:08;99278.84;;;15.59;55.74
80654;BME280;70020;45.524;10.240;2024-03-02T02:43:34;99279.03;;;15.65;56.46
80654;BME280;70020;45.524;10.240;2024-03-02T02:46:00;99274.50;;;15.76;56.82
80654;BME280;70020;45.524;10.240;2024-03-02T02:48:26;99270.25;;;15.75;56.76
80654;BME280;70020;45.524;10.240;2024-03-02T02:50:51;99273.19;;;15.80;56.94
80654;BME280;70020;45.524;10.240;2024-03-02T02:53:17;99276.28;;;15.75;56.96
80654;BME280;70020;45.524;10.240;2024-03-02T02:55:43;99280.38;;;15.78;56.91
80654;BME280;70020;45.524;10.240;2024-03-02T02:58:09;99288.69;;;15.73;58.05
80654;BME280;70020;45.524;10.240;2024-03-02T03:00:35;99289.28;;;15.67;58.36
80654;BME280;70020;45.524;10.240;2024-03-02T03:03:01;99285.84;;;15.58;60.79
80654;BME280;70020;45.524;10.240;2024-03-02T03:05:27;99285.69;;;15.52;61.29
80654;BME280;70020;45.524;10.240;2024-03-02T03:07:53;99284.84;;;15.59;61.46
80654;BME280;70020;45.524;10.240;2024-03-02T03:10:22;99285.69;;;15.60;62.00
80654;BME280;70020;45.524;10.240;2024-03-02T03:12:49;99285.03;;;15.58;62.49
80654;BME280;70020;45.524;10.240;2024-03-02T03:15:15;99285.53;;;15.61;62.33
80654;BME280;70020;45.524;10.240;2024-03-02T03:17:41;99280.34;;;15.61;62.55
80654;BME280;70020;45.524;10.240;2024-03-02T03:20:10;99278.69;;;15.60;63.36
80654;BME280;70020;45.524;10.240;2024-03-02T03:22:37;99278.34;;;15.55;63.19
80654;BME280;70020;45.524;10.240;2024-03-02T03:25:03;99280.28;;;15.53;63.80
80654;BME280;70020;45.524;10.240;2024-03-02T03:27:29;99285.50;;;15.53;64.17
80654;BME280;70020;45.524;10.240;2024-03-02T03:29:55;99289.59;;;15.56;63.71
80654;BME280;70020;45.524;10.240;2024-03-02T03:32:20;99289.06;;;15.52;63.11
80654;BME280;70020;45.524;10.240;2024-03-02T03:34:47;99295.88;;;15.45;63.19
80654;BME280;70020;45.524;10.240;2024-03-02T03:37:13;99294.50;;;15.33;64.24
80654;BME280;70020;45.524;10.240;2024-03-02T03:39:39;99297.75;;;15.27;63.98
80654;BME280;70020;45.524;10.240;2024-03-02T03:42:05;99293.06;;;15.31;64.45
80654;BME280;70020;45.524;10.240;2024-03-02T03:44:32;99296.75;;;15.20;65.19
80654;BME280;70020;45.524;10.240;2024-03-02T03:46:57;99297.91;;;15.26;65.18
80654;BME280;70020;45.524;10.240;2024-03-02T03:49:23;99303.78;;;15.28;64.76
80654;BME280;70020;45.524;10.240;2024-03-02T03:51:48;99306.84;;;15.23;64.85
80654;BME280;70020;45.524;10.240;2024-03-02T03:54:15;99308.44;;;15.16;65.63
80654;BME280;70020;45.524;10.240;2024-03-02T03:56:41;99305.03;;;15.16;65.97
80654;BME280;70020;45.524;10.240;2024-03-02T03:59:06;99310.84;;;15.10;66.83
80654;BME280;70020;45.524;10.240;2024-03-02T04:01:32;99306.97;;;15.14;66.83
80654;BME280;70020;45.524;10.240;2024-03-02T04:03:58;99312.53;;;15.19;66.55
80654;BME280;70020;45.524;10.240;2024-03-02T04:06:24;99308.09;;;15.11;66.75
80654;BME280;70020;45.524;10.240;2024-03-02T04:08:49;99311.53;;;15.12;66.22
80654;BME280;70020;45.524;10.240;2024-03-02T04:11:16;99320.84;;;15.22;66.43
80654;BME280;70020;45.524;10.240;2024-03-02T04:13:42;99320.03;;;15.22;66.51
80654;BME280;70020;45.524;10.240;2024-03-02T04:16:08;99320.66;;;15.16;67.17
80654;BME280;70020;45.524;10.240;2024-03-02T04:18:34;99325.47;;;15.28;66.53
80654;BME280;70020;45.524;10.240;2024-03-02T04:21:00;99327.25;;;15.28;66.47
80654;BME280;70020;45.524;10.240;2024-03-02T04:23:26;99324.63;;;15.28;66.75
80654;BME280;70020;45.524;10.240;2024-03-02T04:25:52;99321.03;;;15.29;66.03
80654;BME280;70020;45.524;10.240;2024-03-02T04:28:18;99326.59;;;15.26;66.29
80654;BME280;70020;45.524;10.240;2024-03-02T04:30:43;99329.97;;;15.26;66.74
80654;BME280;70020;45.524;10.240;2024-03-02T04:33:10;99331.94;;;15.24;67.44
80654;BME280;70020;45.524;10.240;2024-03-02T04:35:36;99327.34;;;15.18;67.29
80654;BME280;70020;45.524;10.240;2024-03-02T04:38:02;99327.41;;;15.00;67.87
80654;BME280;70020;45.524;10.240;2024-03-02T04:40:28;99332.94;;;14.97;68.03
80654;BME280;70020;45.524;10.240;2024-03-02T04:42:54;99333.72;;;14.98;68.57
80654;BME280;70020;45.524;10.240;2024-03-02T04:45:19;99341.59;;;15.06;68.34
80654;BME280;70020;45.524;10.240;2024-03-02T04:47:45;99344.50;;;15.03;68.46
80654;BME280;70020;45.524;10.240;2024-03-02T04:50:11;99343.03;;;15.00;68.75
80654;BME280;70020;45.524;10.240;2024-03-02T04:52:37;99337.72;;;15.10;68.61
80654;BME280;70020;45.524;10.240;2024-03-02T04:55:03;99340.69;;;15.15;68.58
80654;BME280;70020;45.524;10.240;2024-03-02T04:57:35;99340.41;;;15.26;68.12
80654;BME280;70020;45.524;10.240;2024-03-02T05:00:01;99345.28;;;15.21;68.10
80654;BME280;70020;45.524;10.240;2024-03-02T05:02:27;99339.09;;;15.22;68.17
80654;BME280;70020;45.524;10.240;2024-03-02T05:04:52;99336.78;;;15.19;68.43
80654;BME280;70020;45.524;10.240;2024-03-02T05:07:17;99345.28;;;15.21;68.41
80654;BME280;70020;45.524;10.240;2024-03-02T05:09:43;99345.94;;;15.23;68.02
80654;BME280;70020;45.524;10.240;2024-03-02T05:12:10;99343.94;;;15.17;68.46
80654;BME280;70020;45.524;10.240;2024-03-02T05:14:54;99349.69;;;15.21;68.12
80654;BME280;70020;45.524;10.240;2024-03-02T05:17:20;99353.69;;;15.15;68.08
80654;BME280;70020;45.524;10.240;2024-03-02T05:19:46;99357.13;;;15.16;68.53
80654;BME280;70020;45.524;10.240;2024-03-02T05:22:11;99344.09;;;15.16;68.58
80654;BME280;70020;45.524;10.240;2024-03-02T05:24:37;99356.31;;;15.15;68.48
80654;BME280;70020;45.524;10.240;2024-03-02T05:27:03;99357.59;;;15.11;68.85
80654;BME280;70020;45.524;10.240;2024-03-02T05:29:30;99356.41;;;15.06;66.99
80654;BME280;70020;45.524;10.240;2024-03-02T05:31:55;99361.50;;;15.07;68.68
80654;BME280;70020;45.524;10.240;2024-03-02T05:34:21;99362.66;;;15.13;69.01
80654;BME280;70020;45.524;10.240;2024-03-02T05:36:47;99362.81;;;15.11;68.50
80654;BME280;70020;45.524;10.240;2024-03-02T05:39:13;99367.34;;;15.09;68.87
80654;BME280;70020;45.524;10.240;2024-03-02T05:41:39;99364.44;;;15.12;67.81
80654;BME280;70020;45.524;10.240;2024-03-02T05:44:04;99367.81;;;15.05;68.01
80654;BME280;70020;45.524;10.240;2024-03-02T05:46:30;99373.38;;;15.10;68.51
80654;BME280;70020;45.524;10.240;2024-03-02T05:48:57;99371.53;;;15.02;68.81
80654;BME280;70020;45.524;10.240;2024-03-02T05:51:22;99370.44;;;15.05;68.74
80654;BME280;70020;45.524;10.240;2024-03-02T05:53:48;99374.34;;;15.09;68.25
80654;BME280;70020;45.524;10.240;2024-03-02T05:56:14;99375.53;;;15.14;68.26
80654;BME280;70020;45.524;10.240;2024-03-02T05:58:40;99376.34;;;15.15;68.59
80654;BME280;70020;45.524;10.240;2024-03-02T06:01:26;99380.75;;;15.14;68.61
80654;BME280;70020;45.524;10.240;2024-03-02T06:03:56;99382.53;;;15.14;68.57
80654;BME280;70020;45.524;10.240;2024-03-02T06:06:22;99378.38;;;15.03;69.26
80654;BME280;70020;45.524;10.240;2024-03-02T06:08:48;99381.50;;;15.07;68.98
80654;BME280;70020;45.524;10.240;2024-03-02T06:11:14;99391.75;;;15.08;68.78
80654;BME280;70020;45.524;10.240;2024-03-02T06:13:39;99388.56;;;15.14;68.66
80654;BME280;70020;45.524;10.240;2024-03-02T06:16:05;99399.03;;;15.22;67.49
80654;BME280;70020;45.524;10.240;2024-03-02T06:18:35;99399.31;;;15.19;67.22
80654;BME280;70020;45.524;10.240;2024-03-02T06:21:00;99404.25;;;15.22;66.34
80654;BME280;70020;45.524;10.240;2024-03-02T06:23:27;99410.38;;;15.13;66.76
80654;BME280;70020;45.524;10.240;2024-03-02T06:25:53;99411.03;;;15.15;68.28
80654;BME280;70020;45.524;10.240;2024-03-02T06:28:18;99416.25;;;15.15;67.71
80654;BME280;70020;45.524;10.240;2024-03-02T06:30:44;99412.41;;;15.27;67.04
80654;BME280;70020;45.524;10.240;2024-03-02T06:33:11;99411.75;;;15.25;66.97
80654;BME280;70020;45.524;10.240;2024-03-02T06:35:37;99427.41;;;15.25;67.47
80654;BME280;70020;45.524;10.240;2024-03-02T06:38:03;99428.41;;;15.32;66.77
80654;BME280;70020;45.524;10.240;2024-03-02T06:40:30;99427.13;;;15.36;67.44
80654;BME280;70020;45.524;10.240;2024-03-02T06:42:56;99436.75;;;15.36;67.55
80654;BME280;70020;45.524;10.240;2024-03-02T06:45:22;99438.88;;;15.40;66.86
80654;BME280;70020;45.524;10.240;2024-03-02T06:47:47;99443.03;;;15.25;66.85
80654;BME280;70020;45.524;10.240;2024-03-02T06:50:13;99445.34;;;15.28;68.00
80654;BME280;70020;45.524;10.240;2024-03-02T06:52:38;99448.81;;;15.37;67.86
80654;BME280;70020;45.524;10.240;2024-03-02T06:55:05;99454.47;;;15.32;66.30
80654;BME280;70020;45.524;10.240;2024-03-02T06:57:31;99453.81;;;15.30;67.09
80654;BME280;70020;45.524;10.240;2024-03-02T06:59:56;99461.56;;;15.22;67.88
80654;BME280;70020;45.524;10.240;2024-03-02T07:02:24;99456.59;;;15.11;68.70
80654;BME280;70020;45.524;10.240;2024-03-02T07:04:52;99467.78;;;15.21;68.54
80654;BME280;70020;45.524;10.240;2024-03-02T07:07:18;99470.72;;;15.26;68.65
80654;BME280;70020;45.524;10.240;2024-03-02T07:09:43;99474.91;;;15.19;68.52
80654;BME280;70020;45.524;10.240;2024-03-02T07:12:09;99477.06;;;15.24;68.71
80654;BME280;70020;45.524;10.240;2024-03-02T07:14:35;99477.94;;;15.32;68.87
80654;BME280;70020;45.524;10.240;2024-03-02T07:17:35;99486.09;;;15.12;67.78
80654;BME280;70020;45.524;10.240;2024-03-02T07:20:02;99490.94;;;15.07;68.42
80654;BME280;70020;45.524;10.240;2024-03-02T07:22:28;99494.03;;;15.10;68.20
80654;BME280;70020;45.524;10.240;2024-03-02T07:24:55;99495.81;;;15.27;68.03
80654;BME280;70020;45.524;10.240;2024-03-02T07:27:20;99500.00;;;15.20;69.25
80654;BME280;70020;45.524;10.240;2024-03-02T07:29:46;99501.31;;;15.24;69.37
80654;BME280;70020;45.524;10.240;2024-03-02T07:32:12;99506.84;;;15.21;69.63
80654;BME280;70020;45.524;10.240;2024-03-02T07:34:38;99506.66;;;15.40;70.54
80654;BME280;70020;45.524;10.240;2024-03-02T07:37:05;99506.09;;;15.29;68.43
80654;BME280;70020;45.524;10.240;2024-03-02T07:39:31;99508.03;;;15.44;69.28
80654;BME280;70020;45.524;10.240;2024-03-02T07:41:57;99510.69;;;15.52;68.38
80654;BME280;70020;45.524;10.240;2024-03-02T07:44:22;99513.09;;;15.46;68.00
80654;BME280;70020;45.524;10.240;2024-03-02T07:46:49;99517.56;;;15.53;69.14
80654;BME280;70020;45.524;10.240;2024-03-02T07:49:18;99521.59;;;15.48;65.80
80654;BME280;70020;45.524;10.240;2024-03-02T07:51:43;99519.22;;;15.54;68.07
80654;BME280;70020;45.524;10.240;2024-03-02T07:54:09;99519.72;;;15.58;67.63
80654;BME280;70020;45.524;10.240;2024-03-02T07:56:34;99523.06;;;15.50;66.77
80654;BME280;70020;45.524;10.240;2024-03-02T07:59:04;99516.44;;;15.56;67.67
80654;BME280;70020;45.524;10.240;2024-03-02T08:01:31;99516.19;;;15.67;66.34
80654;BME280;70020;45.524;10.240;2024-03-02T08:03:58;99522.06;;;15.69;66.28
80654;BME280;70020;45.524;10.240;2024-03-02T08:06:25;99519.44;;;15.69;66.10
80654;BME280;70020;45.524;10.240;2024-03-02T08:08:56;99527.69;;;15.82;67.14
80654;BME280;70020;45.524;10.240;2024-03-02T08:11:22;99523.31;;;15.83;67.33
80654;BME280;70020;45.524;10.240;2024-03-02T08:13:48;99528.06;;;15.87;67.74
80654;BME280;70020;45.524;10.240;2024-03-02T08:16:15;99537.69;;;15.95;68.01
80654;BME280;70020;45.524;10.240;2024-03-02T08:18:41;99538.41;;;16.05;67.69
80654;BME280;70020;45.524;10.240;2024-03-02T08:21:07;99535.19;;;16.11;67.42
80654;BME280;70020;45.524;10.240;2024-03-02T08:23:33;99535.66;;;16.06;68.16
80654;BME280;70020;45.524;10.240;2024-03-02T08:25:59;99542.56;;;16.15;67.31
80654;BME280;70020;45.524;10.240;2024-03-02T08:28:25;99538.38;;;16.30;67.92
80654;BME280;70020;45.524;10.240;2024-03-02T08:30:51;99537.34;;;16.15;67.84
80654;BME280;70020;45.524;10.240;2024-03-02T08:33:17;99545.06;;;16.25;66.94
80654;BME280;70020;45.524;10.240;2024-03-02T08:35:42;99553.03;;;16.23;64.45
80654;BME280;70020;45.524;10.240;2024-03-02T08:38:08;99545.88;;;16.25;64.88
80654;BME280;70020;45.524;10.240;2024-03-02T08:40:34;99553.38;;;16.28;66.53
80654;BME280;70020;45.524;10.240;2024-03-02T08:43:00;99552.06;;;16.24;66.31
80654;BME280;70020;45.524;10.240;2024-03-02T08:45:26;99551.91;;;16.26;65.66
80654;BME280;70020;45.524;10.240;2024-03-02T08:47:52;99556.50;;;16.32;66.51
80654;BME280;70020;45.524;10.240;2024-03-02T08:50:17;99562.41;;;16.34;66.09
80654;BME280;70020;45.524;10.240;2024-03-02T08:52:43;99561.22;;;16.28;66.09
80654;BME280;70020;45.524;10.240;2024-03-02T08:55:12;99558.94;;;16.25;64.64
80654;BME280;70020;45.524;10.240;2024-03-02T08:57:39;99555.53;;;16.33;66.00
80654;BME280;70020;45.524;10.240;2024-03-02T09:00:06;99557.78;;;16.28;63.87
80654;BME280;70020;45.524;10.240;2024-03-02T09:02:32;99558.78;;;16.35;64.51
80654;BME280;70020;45.524;10.240;2024-03-02T09:04:58;99562.34;;;16.26;61.43
80654;BME280;70020;45.524;10.240;2024-03-02T09:07:24;99558.59;;;16.28;62.36
80654;BME280;70020;45.524;10.240;2024-03-02T09:09:50;99559.47;;;16.37;61.38
80654;BME280;70020;45.524;10.240;2024-03-02T09:12:16;99559.63;;;16.35;61.72
80654;BME280;70020;45.524;10.240;2024-03-02T09:14:42;99557.41;;;16.49;60.99
80654;BME280;70020;45.524;10.240;2024-03-02T09:17:07;99556.59;;;16.48;61.15
80654;BME280;70020;45.524;10.240;2024-03-02T09:19:35;99557.31;;;16.58;61.17
80654;BME280;70020;45.524;10.240;2024-03-02T09:22:01;99561.41;;;16.69;62.94
80654;BME280;70020;45.524;10.240;2024-03-02T09:24:28;99561.44;;;16.77;61.12
80654;BME280;70020;45.524;10.240;2024-03-02T09:26:54;99566.53;;;16.94;63.07
80654;BME280;70020;45.524;10.240;2024-03-02T09:29:20;99573.28;;;17.05;62.76
80654;BME280;70020;45.524;10.240;2024-03-02T09:31:46;99567.56;;;17.10;62.15
80654;BME280;70020;45.524;10.240;2024-03-02T09:34:12;99572.00;;;17.17;64.00
80654;BME280;70020;45.524;10.240;2024-03-02T09:36:39;99573.94;;;17.07;63.06
80654;BME280;70020;45.524;10.240;2024-03-02T09:39:07;99568.84;;;16.97;61.90
80654;BME280;70020;45.524;10.240;2024-03-02T09:41:35;99577.47;;;16.90;61.58
80654;BME280;70020;45.524;10.240;2024-03-02T09:44:02;99578.66;;;16.95;60.49
80654;BME280;70020;45.524;10.240;2024-03-02T09:46:28;99576.72;;;17.06;59.45
80654;BME280;70020;45.524;10.240;2024-03-02T09:48:54;99581.28;;;17.12;62.57
80654;BME280;70020;45.524;10.240;2024-03-02T09:51:20;99577.69;;;17.21;61.99
80654;BME280;70020;45.524;10.240;2024-03-02T09:53:47;99575.88;;;17.13;60.68
80654;BME280;70020;45.524;10.240;2024-03-02T09:56:12;99577.72;;;17.13;59.40
80654;BME280;70020;45.524;10.240;2024-03-02T09:58:38;99583.72;;;17.05;60.85
80654;BME280;70020;45.524;10.240;2024-03-02T10:01:08;99575.53;;;17.00;60.20
80654;BME280;70020;45.524;10.240;2024-03-02T10:03:36;99575.22;;;17.11;61.06
80654;BME280;70020;45.524;10.240;2024-03-02T10:08:46;99567.38;;;16.95;59.62
80654;BME280;70020;45.524;10.240;2024-03-02T10:13:51;99583.06;;;17.03;59.60
80654;BME280;70020;45.524;10.240;2024-03-02T10:16:17;99580.78;;;17.00;59.33
80654;BME280;70020;45.524;10.240;2024-03-02T10:18:43;99573.38;;;16.87;59.07
80654;BME280;70020;45.524;10.240;2024-03-02T10:21:18;99580.22;;;16.72;57.96
80654;BME280;70020;45.524;10.240;2024-03-02T10:23:44;99588.84;;;16.73;60.03
80654;BME280;70020;45.524;10.240;2024-03-02T10:26:17;99589.72;;;16.89;59.87
80654;BME280;70020;45.524;10.240;2024-03-02T10:28:49;99583.19;;;16.85;59.44
80654;BME280;70020;45.524;10.240;2024-03-02T10:31:16;99586.91;;;16.75;58.37
80654;BME280;70020;45.524;10.240;2024-03-02T10:33:43;99584.19;;;16.92;59.13
80654;BME280;70020;45.524;10.240;2024-03-02T10:36:09;99598.09;;;17.01;59.62
80654;BME280;70020;45.524;10.240;2024-03-02T10:38:35;99587.44;;;16.94;57.53
80654;BME280;70020;45.524;10.240;2024-03-02T10:41:01;99588.28;;;16.95;57.84
80654;BME280;70020;45.524;10.240;2024-03-02T10:43:29;99590.91;;;17.03;58.11
80654;BME280;70020;45.524;10.240;2024-03-02T10:45:55;99596.50;;;17.08;57.83
80654;BME280;70020;45.524;10.240;2024-03-02T10:48:25;99588.81;;;17.15;59.52
80654;BME280;70020;45.524;10.240;2024-03-02T10:50:52;99588.16;;;17.13;59.29
80654;BME280;70020;45.524;10.240;2024-03-02T10:53:18;99583.41;;;17.16;58.20
80654;BME280;70020;45.524;10.240;2024-03-02T10:55:46;99582.13;;;17.28;58.15
80654;BME280;70020;45.524;10.240;2024-03-02T10:58:17;99574.78;;;17.32;56.97
80654;BME280;70020;45.524;10.240;2024-03-02T11:00:45;99573.81;;;17.25;57.53
80654;BME280;70020;45.524;10.240;2024-03-02T11:03:12;99572.47;;;17.21;56.74
80654;BME280;70020;45.524;10.240;2024-03-02T11:05:41;99572.47;;;17.37;57.66
80654;BME280;70020;45.524;10.240;2024-03-02T11:08:13;99578.88;;;17.34;57.34
80654;BME280;70020;45.524;10.240;2024-03-02T11:10:51;99571.69;;;17.44;57.03
80654;BME280;70020;45.524;10.240;2024-03-02T11:13:22;99572.84;;;17.50;55.77
80654;BME280;70020;45.524;10.240;2024-03-02T11:15:51;99558.63;;;17.60;55.83
80654;BME280;70020;45.524;10.240;2024-03-02T11:18:20;99557.97;;;17.58;57.08
80654;BME280;70020;45.524;10.240;2024-03-02T11:20:47;99559.94;;;17.64;56.95
80654;BME280;70020;45.524;10.240;2024-03-02T11:23:13;99559.78;;;17.66;55.99
80654;BME280;70020;45.524;10.240;2024-03-02T11:25:39;99557.16;;;17.74;55.88
80654;BME280;70020;45.524;10.240;2024-03-02T11:28:08;99562.38;;;17.82;55.99
80654;BME280;70020;45.524;10.240;2024-03-02T11:33:06;99559.28;;;17.71;56.00
80654;BME280;70020;45.524;10.240;2024-03-02T11:35:52;99545.38;;;17.70;55.38
80654;BME280;70020;45.524;10.240;2024-03-02T11:38:18;99545.84;;;17.90;55.60
80654;BME280;70020;45.524;10.240;2024-03-02T11:40:44;99545.50;;;17.85;56.70
80654;BME280;70020;45.524;10.240;2024-03-02T11:43:10;99543.91;;;17.84;56.62
80654;BME280;70020;45.524;10.240;2024-03-02T11:45:36;99543.72;;;17.93;56.27
80654;BME280;70020;45.524;10.240;2024-03-02T11:48:05;99540.78;;;17.80;56.18
80654;BME280;70020;45.524;10.240;2024-03-02T11:50:35;99542.75;;;17.70;54.80
80654;BME280;70020;45.524;10.240;2024-03-02T11:53:09;99536.38;;;17.81;56.95
80654;BME280;70020;45.524;10.240;2024-03-02T11:55:36;99529.50;;;17.80;56.99
80654;BME280;70020;45.524;10.240;2024-03-02T11:58:03;99525.41;;;17.93;56.14
80654;BME280;70020;45.524;10.240;2024-03-02T12:00:29;99518.50;;;18.00;56.51
80654;BME280;70020;45.524;10.240;2024-03-02T12:03:06;99520.75;;;18.11;54.18
80654;BME280;70020;45.524;10.240;2024-03-02T12:05:33;99525.94;;;18.27;54.88
80654;BME280;70020;45.524;10.240;2024-03-02T12:08:11;99522.28;;;18.36;56.12
80654;BME280;70020;45.524;10.240;2024-03-02T12:10:38;99531.91;;;18.44;56.16
80654;BME280;70020;45.524;10.240;2024-03-02T12:13:05;99529.34;;;18.36;56.96
80654;BME280;70020;45.524;10.240;2024-03-02T12:15:37;99521.50;;;18.28;56.85
80654;BME280;70020;45.524;10.240;2024-03-02T12:18:10;99524.41;;;18.49;54.83
80654;BME280;70020;45.524;10.240;2024-03-02T12:20:36;99526.31;;;18.55;54.98
80654;BME280;70020;45.524;10.240;2024-03-02T12:23:04;99525.97;;;18.66;56.88
80654;BME280;70020;45.524;10.240;2024-03-02T12:25:32;99523.69;;;18.55;56.10
80654;BME280;70020;45.524;10.240;2024-03-02T12:28:00;99519.97;;;18.50;56.77
80654;BME280;70020;45.524;10.240;2024-03-02T12:30:29;99525.84;;;18.44;57.66
80654;BME280;70020;45.524;10.240;2024-03-02T12:32:56;99523.44;;;18.50;58.08
80654;BME280;70020;45.524;10.240;2024-03-02T12:35:22;99519.97;;;18.50;57.92
80654;BME280;70020;45.524;10.240;2024-03-02T12:37:51;99511.75;;;18.53;56.98
80654;BME280;70020;45.524;10.240;2024-03-02T12:40:18;99515.75;;;18.41;56.79
80654;BME280;70020;45.524;10.240;2024-03-02T12:42:46;99520.69;;;18.27;57.97
80654;BME280;70020;45.524;10.240;2024-03-02T12:45:12;99519.78;;;18.12;57.02
80654;BME280;70020;45.524;10.240;2024-03-02T12:47:40;99521.63;;;17.96;57.91
80654;BME280;70020;45.524;10.240;2024-03-02T12:50:06;99517.09;;;17.82;57.60
80654;BME280;70020;45.524;10.240;2024-03-02T12:52:32;99522.31;;;17.65;57.70
80654;BME280;70020;45.524;10.240;2024-03-02T12:55:00;99525.41;;;17.77;57.27
80654;BME280;70020;45.524;10.240;2024-03-02T12:57:26;99513.97;;;17.78;58.05
80654;BME280;70020;45.524;10.240;2024-03-02T13:00:01;99519.03;;;17.80;57.06
80654;BME280;70020;45.524;10.240;2024-03-02T13:02:30;99512.34;;;17.69;57.83
80654;BME280;70020;45.524;10.240;2024-03-02T13:04:58;99513.00;;;17.71;58.10